sensor_id;sensor_type;location;lat;lon;timestamp;pressure;altitude;pressure_sealevel;temperature;humidity
21869;BME280;11099;41.564;23.296;2023-05-20T00:03:16;97821.78;;;17.13;83.54
21869;BME280;11099;41.564;23.296;2023-05-20T00:09:05;97843.56;;;16.96;85.27
21869;BME280;11099;41.564;23.296;2023-05-20T00:11:32;97774.59;;;16.64;85.68
21869;BME280;11099;41.564;23.296;2023-05-20T00:13:57;97582.09;;;15.29;86.19
21869;BME280;11099;41.564;23.296;2023-05-20T00:16:54;97771.56;;;16.77;84.43
21869;BME280;11099;41.564;23.296;2023-05-20T00:19:44;97773.13;;;16.78;81.97
21869;BME280;11099;41.564;23.296;2023-05-20T00:22:10;97625.28;;;15.86;82.23
21869;BME280;11099;41.564;23.296;2023-05-20T00:24:36;97692.75;;;16.61;80.08
21869;BME280;11099;41.564;23.296;2023-05-20T00:27:01;97660.91;;;16.23;77.38
21869;BME280;11099;41.564;23.296;2023-05-20T00:29:27;97582.78;;;15.39;78.81
21869;BME280;11099;41.564;23.296;2023-05-20T00:31:53;97651.13;;;15.66;79.22
21869;BME280;11099;41.564;23.296;2023-05-20T00:34:19;97608.50;;;15.64;80.16
21869;BME280;11099;41.564;23.296;2023-05-20T00:36:45;97727.16;;;15.82;82.51
21869;BME280;11099;41.564;23.296;2023-05-20T00:39:11;97696.97;;;15.97;80.69
21869;BME280;11099;41.564;23.296;2023-05-20T00:41:36;97618.22;;;15.57;81.19
21869;BME280;11099;41.564;23.296;2023-05-20T00:44:03;97823.28;;;17.39;80.54
21869;BME280;11099;41.564;23.296;2023-05-20T00:46:29;97851.97;;;17.63;79.66
21869;BME280;11099;41.564;23.296;2023-05-20T00:48:55;97633.16;;;16.19;80.47
21869;BME280;11099;41.564;23.296;2023-05-20T00:51:35;97747.16;;;16.82;79.24
21869;BME280;11099;41.564;23.296;2023-05-20T00:54:22;97770.44;;;17.19;79.29
21869;BME280;11099;41.564;23.296;2023-05-20T00:56:49;97745.31;;;16.86;78.37
21869;BME280;11099;41.564;23.296;2023-05-20T00:59:40;97610.63;;;15.83;79.22
21869;BME280;11099;41.564;23.296;2023-05-20T01:02:08;97616.22;;;15.78;78.52
21869;BME280;11099;41.564;23.296;2023-05-20T01:04:38;97700.69;;;16.57;78.87
21869;BME280;11099;41.564;23.296;2023-05-20T01:07:11;97629.09;;;15.72;80.50
21869;BME280;11099;41.564;23.296;2023-05-20T01:09:45;97636.22;;;15.93;81.34
21869;BME280;11099;41.564;23.296;2023-05-20T01:12:40;97736.38;;;16.82;79.79
21869;BME280;11099;41.564;23.296;2023-05-20T01:15:12;97693.91;;;16.36;77.31
21869;BME280;11099;41.564;23.296;2023-05-20T01:18:02;97715.63;;;16.30;78.89
21869;BME280;11099;41.564;23.296;2023-05-20T01:20:34;97692.75;;;16.61;77.76
21869;BME280;11099;41.564;23.296;2023-05-20T01:23:00;97796.41;;;16.99;78.94
21869;BME280;11099;41.564;23.296;2023-05-20T01:25:25;97785.56;;;16.83;79.52
21869;BME280;11099;41.564;23.296;2023-05-20T01:27:56;97806.63;;;16.81;81.68
21869;BME280;11099;41.564;23.296;2023-05-20T01:30:32;97743.03;;;16.36;82.02
21869;BME280;11099;41.564;23.296;2023-05-20T01:33:14;97765.22;;;16.33;83.70
21869;BME280;11099;41.564;23.296;2023-05-20T01:35:41;97795.50;;;16.95;81.84
21869;BME280;11099;41.564;23.296;2023-05-20T01:41:36;97789.66;;;17.05;78.91
21869;BME280;11099;41.564;23.296;2023-05-20T01:44:02;97794.09;;;16.60;79.82
21869;BME280;11099;41.564;23.296;2023-05-20T01:46:32;97762.84;;;16.31;80.97
21869;BME280;11099;41.564;23.296;2023-05-20T01:48:58;97732.53;;;16.31;80.24
21869;BME280;11099;41.564;23.296;2023-05-20T01:51:24;97792.97;;;16.62;79.50
21869;BME280;11099;41.564;23.296;2023-05-20T01:53:51;97787.72;;;16.28;81.99
21869;BME280;11099;41.564;23.296;2023-05-20T01:59:57;97533.28;;;14.66;80.43
21869;BME280;11099;41.564;23.296;2023-05-20T02:02:22;97591.03;;;14.76;80.58
21869;BME280;11099;41.564;23.296;2023-05-20T02:04:50;97737.56;;;15.84;80.17
21869;BME280;11099;41.564;23.296;2023-05-20T02:07:17;97790.28;;;16.00;82.02
21869;BME280;11099;41.564;23.296;2023-05-20T02:09:43;97557.38;;;14.33;83.14
21869;BME280;11099;41.564;23.296;2023-05-20T02:12:09;97636.38;;;15.14;82.44
21869;BME280;11099;41.564;23.296;2023-05-20T02:14:46;97732.47;;;15.58;86.47
21869;BME280;11099;41.564;23.296;2023-05-20T02:17:21;97792.53;;;16.35;87.21
21869;BME280;11099;41.564;23.296;2023-05-20T02:19:53;97670.09;;;15.61;85.90
21869;BME280;11099;41.564;23.296;2023-05-20T02:22:18;97556.31;;;14.46;88.90
21869;BME280;11099;41.564;23.296;2023-05-20T02:24:44;97609.84;;;14.88;88.15
21869;BME280;11099;41.564;23.296;2023-05-20T02:33:24;97792.97;;;16.25;88.13
21869;BME280;11099;41.564;23.296;2023-05-20T02:35:53;97561.78;;;14.71;88.44
21869;BME280;11099;41.564;23.296;2023-05-20T02:38:18;97568.81;;;14.42;87.95
21869;BME280;11099;41.564;23.296;2023-05-20T02:40:44;97735.56;;;15.35;89.38
21869;BME280;11099;41.564;23.296;2023-05-20T02:43:10;97556.34;;;14.26;89.11
21869;BME280;11099;41.564;23.296;2023-05-20T02:45:39;97711.25;;;15.19;90.33
21869;BME280;11099;41.564;23.296;2023-05-20T02:48:05;97791.25;;;15.71;90.96
21869;BME280;11099;41.564;23.296;2023-05-20T02:50:32;97715.44;;;15.41;89.49
21869;BME280;11099;41.564;23.296;2023-05-20T02:52:58;97553.03;;;14.08;89.45
21869;BME280;11099;41.564;23.296;2023-05-20T02:55:24;97622.59;;;14.91;87.83
21869;BME280;11099;41.564;23.296;2023-05-20T02:57:49;97748.41;;;15.42;88.89
21869;BME280;11099;41.564;23.296;2023-05-20T03:00:15;97775.16;;;15.96;88.35
21869;BME280;11099;41.564;23.296;2023-05-20T03:02:41;97724.28;;;15.42;89.14
21869;BME280;11099;41.564;23.296;2023-05-20T03:05:06;97781.31;;;16.08;88.85
21869;BME280;11099;41.564;23.296;2023-05-20T03:07:33;97613.00;;;15.02;88.49
21869;BME280;11099;41.564;23.296;2023-05-20T03:10:00;97727.97;;;16.07;87.86
21869;BME280;11099;41.564;23.296;2023-05-20T03:12:27;97764.09;;;16.10;87.45
21869;BME280;11099;41.564;23.296;2023-05-20T03:14:52;97765.47;;;16.16;87.77
21869;BME280;11099;41.564;23.296;2023-05-20T03:17:57;97619.28;;;15.19;87.66
21869;BME280;11099;41.564;23.296;2023-05-20T03:20:23;97521.03;;;14.44;88.00
21869;BME280;11099;41.564;23.296;2023-05-20T03:22:48;97665.47;;;15.37;87.51
21869;BME280;11099;41.564;23.296;2023-05-20T03:25:14;97604.25;;;14.81;88.44
21869;BME280;11099;41.564;23.296;2023-05-20T03:27:40;97613.56;;;14.63;88.86
21869;BME280;11099;41.564;23.296;2023-05-20T03:30:07;97599.91;;;14.56;89.27
21869;BME280;11099;41.564;23.296;2023-05-20T03:32:35;97741.41;;;15.49;89.51
21869;BME280;11099;41.564;23.296;2023-05-20T03:35:01;97599.44;;;14.54;88.87
21869;BME280;11099;41.564;23.296;2023-05-20T03:37:27;97579.97;;;14.44;88.51
21869;BME280;11099;41.564;23.296;2023-05-20T03:39:58;97695.94;;;15.20;89.67
21869;BME280;11099;41.564;23.296;2023-05-20T03:42:24;97590.03;;;14.68;88.51
21869;BME280;11099;41.564;23.296;2023-05-20T03:44:50;97622.94;;;14.90;87.70
21869;BME280;11099;41.564;23.296;2023-05-20T03:47:16;97860.59;;;16.51;87.20
21869;BME280;11099;41.564;23.296;2023-05-20T03:49:44;97622.66;;;14.83;87.43
21869;BME280;11099;41.564;23.296;2023-05-20T03:52:30;97617.31;;;15.28;85.51
21869;BME280;11099;41.564;23.296;2023-05-20T03:55:19;97841.78;;;16.51;85.04
21869;BME280;11099;41.564;23.296;2023-05-20T04:03:47;97841.63;;;18.88;72.90
21869;BME280;11099;41.564;23.296;2023-05-20T04:10:01;97648.28;;;18.73;69.48
21869;BME280;11099;41.564;23.296;2023-05-20T04:12:32;97624.00;;;18.73;67.34
21869;BME280;11099;41.564;23.296;2023-05-20T04:15:14;97842.78;;;20.03;67.69
21869;BME280;11099;41.564;23.296;2023-05-20T04:17:40;97743.53;;;19.35;68.56
21869;BME280;11099;41.564;23.296;2023-05-20T04:20:08;97642.38;;;18.12;70.04
21869;BME280;11099;41.564;23.296;2023-05-20T04:22:35;97676.72;;;19.09;68.16
21869;BME280;11099;41.564;23.296;2023-05-20T04:25:02;97715.88;;;19.41;67.40
21869;BME280;11099;41.564;23.296;2023-05-20T04:27:31;97703.75;;;19.74;67.61
21869;BME280;11099;41.564;23.296;2023-05-20T04:30:27;97845.59;;;20.10;68.50
21869;BME280;11099;41.564;23.296;2023-05-20T04:33:02;97637.50;;;17.83;72.19
21869;BME280;11099;41.564;23.296;2023-05-20T04:35:28;97670.72;;;18.77;69.13
21869;BME280;11099;41.564;23.296;2023-05-20T04:37:54;97746.66;;;19.37;67.03
21869;BME280;11099;41.564;23.296;2023-05-20T04:40:19;97849.06;;;20.79;65.46
21869;BME280;11099;41.564;23.296;2023-05-20T04:42:48;97789.13;;;20.51;64.94
21869;BME280;11099;41.564;23.296;2023-05-20T04:45:22;97659.63;;;20.19;62.77
21869;BME280;11099;41.564;23.296;2023-05-20T04:47:58;97616.41;;;19.66;64.33
21869;BME280;11099;41.564;23.296;2023-05-20T04:50:23;97683.38;;;18.57;69.88
21869;BME280;11099;41.564;23.296;2023-05-20T04:52:49;97742.25;;;19.71;68.46
21869;BME280;11099;41.564;23.296;2023-05-20T04:55:15;97669.63;;;21.09;61.05
21869;BME280;11099;41.564;23.296;2023-05-20T04:57:41;97806.88;;;22.09;59.40
21869;BME280;11099;41.564;23.296;2023-05-20T05:00:08;97852.25;;;23.19;56.17
21869;BME280;11099;41.564;23.296;2023-05-20T05:02:35;97649.31;;;22.15;55.14
21869;BME280;11099;41.564;23.296;2023-05-20T05:05:01;97807.31;;;23.36;54.35
21869;BME280;11099;41.564;23.296;2023-05-20T05:07:26;97710.72;;;22.55;55.58
21869;BME280;11099;41.564;23.296;2023-05-20T05:09:52;97730.53;;;21.60;57.67
21869;BME280;11099;41.564;23.296;2023-05-20T05:12:17;97788.88;;;21.20;63.36
21869;BME280;11099;41.564;23.296;2023-05-20T05:14:43;97770.13;;;20.74;64.03
21869;BME280;11099;41.564;23.296;2023-05-20T05:17:08;97857.69;;;22.16;61.31
21869;BME280;11099;41.564;23.296;2023-05-20T05:19:34;97852.47;;;20.50;66.90
21869;BME280;11099;41.564;23.296;2023-05-20T05:22:01;97595.78;;;18.47;67.61
21869;BME280;11099;41.564;23.296;2023-05-20T05:24:27;97592.81;;;18.72;66.51
21869;BME280;11099;41.564;23.296;2023-05-20T05:26:54;97865.19;;;20.26;67.18
21869;BME280;11099;41.564;23.296;2023-05-20T05:29:23;97607.13;;;18.37;68.87
21869;BME280;11099;41.564;23.296;2023-05-20T05:35:20;97684.03;;;20.23;65.16
21869;BME280;11099;41.564;23.296;2023-05-20T05:37:46;97563.19;;;19.67;64.06
21869;BME280;11099;41.564;23.296;2023-05-20T05:40:11;97892.66;;;21.01;64.85
21869;BME280;11099;41.564;23.296;2023-05-20T05:42:37;97578.75;;;18.43;68.77
21869;BME280;11099;41.564;23.296;2023-05-20T05:45:05;97862.38;;;21.82;63.92
21869;BME280;11099;41.564;23.296;2023-05-20T05:47:31;97687.91;;;21.16;61.26
21869;BME280;11099;41.564;23.296;2023-05-20T05:49:57;97762.94;;;21.90;60.08
21869;BME280;11099;41.564;23.296;2023-05-20T05:52:29;97847.19;;;22.62;59.27
21869;BME280;11099;41.564;23.296;2023-05-20T05:54:55;97616.00;;;21.63;57.30
21869;BME280;11099;41.564;23.296;2023-05-20T05:57:21;97598.13;;;21.10;58.81
21869;BME280;11099;41.564;23.296;2023-05-20T05:59:46;97824.47;;;22.30;60.66
21869;BME280;11099;41.564;23.296;2023-05-20T06:02:12;97598.31;;;21.76;57.81
21869;BME280;11099;41.564;23.296;2023-05-20T06:04:39;97667.94;;;21.31;60.02
21869;BME280;11099;41.564;23.296;2023-05-20T06:07:04;97695.09;;;20.71;62.99
21869;BME280;11099;41.564;23.296;2023-05-20T06:09:30;97851.97;;;21.88;60.76
21869;BME280;11099;41.564;23.296;2023-05-20T06:11:56;97762.09;;;21.86;61.37
21869;BME280;11099;41.564;23.296;2023-05-20T06:14:23;97764.88;;;23.03;57.75
21869;BME280;11099;41.564;23.296;2023-05-20T06:16:48;97753.38;;;23.49;54.92
21869;BME280;11099;41.564;23.296;2023-05-20T06:19:14;97733.06;;;23.00;53.53
21869;BME280;11099;41.564;23.296;2023-05-20T06:21:39;97545.38;;;22.00;53.46
21869;BME280;11099;41.564;23.296;2023-05-20T06:24:05;97859.59;;;24.41;51.42
21869;BME280;11099;41.564;23.296;2023-05-20T06:26:31;97739.78;;;23.38;51.65
21869;BME280;11099;41.564;23.296;2023-05-20T06:28:59;97758.63;;;22.29;54.25
21869;BME280;11099;41.564;23.296;2023-05-20T06:31:24;97756.03;;;22.51;53.16
21869;BME280;11099;41.564;23.296;2023-05-20T06:33:50;97760.25;;;23.10;52.93
21869;BME280;11099;41.564;23.296;2023-05-20T06:36:16;97596.69;;;22.26;51.21
21869;BME280;11099;41.564;23.296;2023-05-20T06:38:42;97797.00;;;24.13;50.35
21869;BME280;11099;41.564;23.296;2023-05-20T06:41:07;97584.41;;;22.68;51.14
21869;BME280;11099;41.564;23.296;2023-05-20T06:43:33;97581.44;;;23.45;50.30
21869;BME280;11099;41.564;23.296;2023-05-20T06:45:58;97703.66;;;24.62;50.20
21869;BME280;11099;41.564;23.296;2023-05-20T06:48:24;97620.31;;;22.26;56.17
21869;BME280;11099;41.564;23.296;2023-05-20T06:50:50;97577.34;;;22.39;53.32
21869;BME280;11099;41.564;23.296;2023-05-20T06:53:15;97629.38;;;22.58;52.99
21869;BME280;11099;41.564;23.296;2023-05-20T06:55:41;97721.75;;;22.91;53.83
21869;BME280;11099;41.564;23.296;2023-05-20T06:58:07;97507.84;;;22.05;54.11
21869;BME280;11099;41.564;23.296;2023-05-20T07:00:32;97740.25;;;23.69;53.32
21869;BME280;11099;41.564;23.296;2023-05-20T07:02:58;97656.00;;;23.76;50.41
21869;BME280;11099;41.564;23.296;2023-05-20T07:05:23;97764.31;;;24.56;50.37
21869;BME280;11099;41.564;23.296;2023-05-20T07:07:49;97663.34;;;23.89;50.91
21869;BME280;11099;41.564;23.296;2023-05-20T07:10:15;97588.03;;;23.58;51.17
21869;BME280;11099;41.564;23.296;2023-05-20T07:12:41;97682.34;;;24.29;50.73
21869;BME280;11099;41.564;23.296;2023-05-20T07:15:07;97644.28;;;24.11;49.98
21869;BME280;11099;41.564;23.296;2023-05-20T07:17:33;97698.59;;;24.68;49.77
21869;BME280;11099;41.564;23.296;2023-05-20T07:19:58;97723.03;;;24.86;48.99
21869;BME280;11099;41.564;23.296;2023-05-20T07:22:23;97720.41;;;24.32;50.40
21869;BME280;11099;41.564;23.296;2023-05-20T07:24:49;97697.53;;;23.83;52.29
21869;BME280;11099;41.564;23.296;2023-05-20T07:27:15;97593.06;;;23.27;52.28
21869;BME280;11099;41.564;23.296;2023-05-20T07:29:42;97780.59;;;24.77;50.66
21869;BME280;11099;41.564;23.296;2023-05-20T07:32:08;97699.84;;;24.13;51.69
21869;BME280;11099;41.564;23.296;2023-05-20T07:34:34;97715.75;;;24.43;51.43
21869;BME280;11099;41.564;23.296;2023-05-20T07:37:00;97688.16;;;24.45;50.88
21869;BME280;11099;41.564;23.296;2023-05-20T07:39:26;97691.72;;;23.92;52.20
21869;BME280;11099;41.564;23.296;2023-05-20T07:41:51;97716.91;;;24.53;53.04
21869;BME280;11099;41.564;23.296;2023-05-20T07:44:17;97722.75;;;24.37;53.93
21869;BME280;11099;41.564;23.296;2023-05-20T07:46:48;97499.56;;;23.21;56.24
21869;BME280;11099;41.564;23.296;2023-05-20T07:49:14;97623.75;;;23.88;55.95
21869;BME280;11099;41.564;23.296;2023-05-20T07:51:39;97721.59;;;24.38;57.07
21869;BME280;11099;41.564;23.296;2023-05-20T07:54:05;97672.47;;;24.81;55.00
21869;BME280;11099;41.564;23.296;2023-05-20T07:56:31;97608.66;;;23.62;56.66
21869;BME280;11099;41.564;23.296;2023-05-20T07:58:58;97605.13;;;23.40;58.72
21869;BME280;11099;41.564;23.296;2023-05-20T08:01:24;97755.41;;;24.19;58.40
21869;BME280;11099;41.564;23.296;2023-05-20T08:03:50;97665.31;;;23.96;59.33
21869;BME280;11099;41.564;23.296;2023-05-20T08:06:16;97648.94;;;24.10;56.70
21869;BME280;11099;41.564;23.296;2023-05-20T08:08:42;97622.09;;;24.37;55.73
21869;BME280;11099;41.564;23.296;2023-05-20T08:11:08;97679.78;;;24.98;56.63
21869;BME280;11099;41.564;23.296;2023-05-20T08:13:34;97655.91;;;24.22;56.59
21869;BME280;11099;41.564;23.296;2023-05-20T08:16:03;97726.59;;;25.49;53.52
21869;BME280;11099;41.564;23.296;2023-05-20T08:18:31;97528.22;;;23.83;53.37
21869;BME280;11099;41.564;23.296;2023-05-20T08:21:00;97594.59;;;24.03;56.05
21869;BME280;11099;41.564;23.296;2023-05-20T08:23:26;97659.38;;;24.48;55.58
21869;BME280;11099;41.564;23.296;2023-05-20T08:25:52;97703.34;;;24.35;55.47
21869;BME280;11099;41.564;23.296;2023-05-20T08:28:18;97603.56;;;23.57;56.09
21869;BME280;11099;41.564;23.296;2023-05-20T08:30:43;97570.16;;;23.00;56.47
21869;BME280;11099;41.564;23.296;2023-05-20T08:33:09;97564.72;;;23.07;57.29
21869;BME280;11099;41.564;23.296;2023-05-20T08:35:35;97658.69;;;23.93;56.14
21869;BME280;11099;41.564;23.296;2023-05-20T08:38:04;97689.75;;;24.35;54.38
21869;BME280;11099;41.564;23.296;2023-05-20T08:40:30;97683.50;;;24.38;54.80
21869;BME280;11099;41.564;23.296;2023-05-20T08:42:55;97571.31;;;23.91;53.26
21869;BME280;11099;41.564;23.296;2023-05-20T08:45:24;97555.72;;;24.13;53.29
21869;BME280;11099;41.564;23.296;2023-05-20T08:47:53;97596.91;;;24.12;53.17
21869;BME280;11099;41.564;23.296;2023-05-20T08:50:19;97669.38;;;24.79;52.17
21869;BME280;11099;41.564;23.296;2023-05-20T08:52:45;97683.44;;;25.44;51.75
21869;BME280;11099;41.564;23.296;2023-05-20T08:55:17;97658.19;;;25.36;53.57
21869;BME280;11099;41.564;23.296;2023-05-20T08:57:49;97674.81;;;25.53;50.51
21869;BME280;11099;41.564;23.296;2023-05-20T09:00:14;97662.19;;;25.73;50.44
21869;BME280;11099;41.564;23.296;2023-05-20T09:02:42;97632.91;;;25.81;48.27
21869;BME280;11099;41.564;23.296;2023-05-20T09:05:09;97666.03;;;26.24;50.14
21869;BME280;11099;41.564;23.296;2023-05-20T09:07:35;97627.78;;;25.90;47.27
21869;BME280;11099;41.564;23.296;2023-05-20T09:10:02;97669.44;;;25.94;48.08
21869;BME280;11099;41.564;23.296;2023-05-20T09:12:27;97595.28;;;25.13;46.78
21869;BME280;11099;41.564;23.296;2023-05-20T09:14:53;97670.81;;;25.02;49.28
21869;BME280;11099;41.564;23.296;2023-05-20T09:17:20;97524.56;;;24.36;48.54
21869;BME280;11099;41.564;23.296;2023-05-20T09:19:50;97678.13;;;25.22;46.69
21869;BME280;11099;41.564;23.296;2023-05-20T09:22:26;97665.41;;;25.57;47.04
21869;BME280;11099;41.564;23.296;2023-05-20T09:24:52;97563.38;;;25.58;42.00
21869;BME280;11099;41.564;23.296;2023-05-20T09:27:18;97547.19;;;25.40;43.06
21869;BME280;11099;41.564;23.296;2023-05-20T09:29:46;97559.38;;;24.66;44.75
21869;BME280;11099;41.564;23.296;2023-05-20T09:32:13;97630.78;;;24.95;44.85
21869;BME280;11099;41.564;23.296;2023-05-20T09:34:38;97546.47;;;23.82;47.50
21869;BME280;11099;41.564;23.296;2023-05-20T09:37:06;97579.69;;;24.47;47.91
21869;BME280;11099;41.564;23.296;2023-05-20T09:39:38;97597.16;;;24.57;49.39
21869;BME280;11099;41.564;23.296;2023-05-20T09:42:14;97635.03;;;25.07;49.48
21869;BME280;11099;41.564;23.296;2023-05-20T09:44:42;97639.66;;;25.10;50.61
21869;BME280;11099;41.564;23.296;2023-05-20T09:47:10;97512.59;;;24.12;49.93
21869;BME280;11099;41.564;23.296;2023-05-20T09:49:36;97593.19;;;25.31;46.95
21869;BME280;11099;41.564;23.296;2023-05-20T09:52:03;97500.47;;;24.27;47.88
21869;BME280;11099;41.564;23.296;2023-05-20T09:54:30;97516.38;;;24.36;49.67
21869;BME280;11099;41.564;23.296;2023-05-20T09:56:58;97473.72;;;24.11;58.75
21869;BME280;11099;41.564;23.296;2023-05-20T09:59:26;97529.13;;;24.53;61.47
21869;BME280;11099;41.564;23.296;2023-05-20T10:01:51;97523.75;;;24.98;58.94
21869;BME280;11099;41.564;23.296;2023-05-20T10:04:18;97519.69;;;25.28;59.25
21869;BME280;11099;41.564;23.296;2023-05-20T10:13:10;97574.03;;;25.87;52.27
21869;BME280;11099;41.564;23.296;2023-05-20T10:20:48;97567.03;;;24.85;58.46
21869;BME280;11099;41.564;23.296;2023-05-20T10:23:26;97430.50;;;24.31;58.50
21869;BME280;11099;41.564;23.296;2023-05-20T10:25:54;97477.69;;;24.73;56.09
21869;BME280;11099;41.564;23.296;2023-05-20T10:28:36;97500.63;;;25.24;55.75
21869;BME280;11099;41.564;23.296;2023-05-20T10:31:13;97465.41;;;25.44;53.04
21869;BME280;11099;41.564;23.296;2023-05-20T10:33:44;97501.44;;;25.62;54.22
21869;BME280;11099;41.564;23.296;2023-05-20T10:36:27;97462.56;;;25.17;52.97
21869;BME280;11099;41.564;23.296;2023-05-20T10:38:57;97486.28;;;25.95;50.71
21869;BME280;11099;41.564;23.296;2023-05-20T10:41:27;97498.06;;;25.89;51.08
21869;BME280;11099;41.564;23.296;2023-05-20T10:44:04;97526.53;;;25.88;51.37
21869;BME280;11099;41.564;23.296;2023-05-20T10:46:30;97504.50;;;25.68;52.58
21869;BME280;11099;41.564;23.296;2023-05-20T10:48:56;97512.91;;;25.84;52.09
21869;BME280;11099;41.564;23.296;2023-05-20T10:51:23;97471.41;;;25.66;52.89
21869;BME280;11099;41.564;23.296;2023-05-20T10:53:54;97503.25;;;26.10;50.71
21869;BME280;11099;41.564;23.296;2023-05-20T10:56:22;97416.59;;;25.91;49.14
21869;BME280;11099;41.564;23.296;2023-05-20T10:58:49;97481.75;;;26.16;49.08
21869;BME280;11099;41.564;23.296;2023-05-20T11:01:16;97453.00;;;26.08;45.68
21869;BME280;11099;41.564;23.296;2023-05-20T11:03:44;97409.88;;;25.65;41.45
21869;BME280;11099;41.564;23.296;2023-05-20T11:06:14;97524.03;;;26.62;40.80
21869;BME280;11099;41.564;23.296;2023-05-20T11:08:40;97432.31;;;25.80;39.45
21869;BME280;11099;41.564;23.296;2023-05-20T11:11:05;97384.97;;;25.97;41.32
21869;BME280;11099;41.564;23.296;2023-05-20T11:13:31;97387.88;;;25.83;39.90
21869;BME280;11099;41.564;23.296;2023-05-20T11:15:57;97455.50;;;25.95;41.36
21869;BME280;11099;41.564;23.296;2023-05-20T11:18:28;97389.13;;;25.44;42.94
21869;BME280;11099;41.564;23.296;2023-05-20T11:20:57;97462.91;;;25.60;43.73
21869;BME280;11099;41.564;23.296;2023-05-20T11:23:22;97361.00;;;24.75;42.67
21869;BME280;11099;41.564;23.296;2023-05-20T11:25:50;97401.50;;;24.66;45.63
21869;BME280;11099;41.564;23.296;2023-05-20T11:28:18;97422.22;;;24.97;47.24
21869;BME280;11099;41.564;23.296;2023-05-20T11:30:44;97469.06;;;25.64;46.67
21869;BME280;11099;41.564;23.296;2023-05-20T11:33:14;97328.44;;;24.61;45.30
21869;BME280;11099;41.564;23.296;2023-05-20T11:35:45;97408.78;;;24.80;46.54
21869;BME280;11099;41.564;23.296;2023-05-20T11:38:11;97426.06;;;25.04;47.10
21869;BME280;11099;41.564;23.296;2023-05-20T11:40:42;97401.72;;;24.86;46.64
21869;BME280;11099;41.564;23.296;2023-05-20T11:43:10;97475.25;;;25.34;48.32
21869;BME280;11099;41.564;23.296;2023-05-20T11:45:41;97498.44;;;25.87;47.17
21869;BME280;11099;41.564;23.296;2023-05-20T11:48:07;97484.16;;;26.10;46.42
21869;BME280;11099;41.564;23.296;2023-05-20T11:50:38;97458.09;;;26.06;46.62
21869;BME280;11099;41.564;23.296;2023-05-20T11:53:06;97448.28;;;25.81;47.30
21869;BME280;11099;41.564;23.296;2023-05-20T11:55:33;97402.63;;;25.17;48.15
21869;BME280;11099;41.564;23.296;2023-05-20T11:58:00;97354.06;;;25.12;48.35
21869;BME280;11099;41.564;23.296;2023-05-20T12:00:26;97479.09;;;25.78;46.28
21869;BME280;11099;41.564;23.296;2023-05-20T12:02:52;97425.47;;;25.64;46.33
21869;BME280;11099;41.564;23.296;2023-05-20T12:05:18;97454.81;;;25.87;44.47
21869;BME280;11099;41.564;23.296;2023-05-20T12:07:43;97392.53;;;25.52;44.12
21869;BME280;11099;41.564;23.296;2023-05-20T12:10:09;97453.31;;;26.13;43.51
21869;BME280;11099;41.564;23.296;2023-05-20T12:12:35;97420.31;;;26.04;40.85
21869;BME280;11099;41.564;23.296;2023-05-20T12:15:03;97444.19;;;26.27;43.05
21869;BME280;11099;41.564;23.296;2023-05-20T12:17:28;97347.09;;;25.72;40.95
21869;BME280;11099;41.564;23.296;2023-05-20T12:19:54;97413.91;;;26.18;41.44
21869;BME280;11099;41.564;23.296;2023-05-20T12:22:19;97344.00;;;26.00;38.16
21869;BME280;11099;41.564;23.296;2023-05-20T12:24:45;97381.78;;;26.29;37.61
21869;BME280;11099;41.564;23.296;2023-05-20T12:27:10;97427.53;;;26.48;38.89
21869;BME280;11099;41.564;23.296;2023-05-20T12:29:36;97298.50;;;25.67;40.03
21869;BME280;11099;41.564;23.296;2023-05-20T12:32:02;97330.41;;;25.97;39.26
21869;BME280;11099;41.564;23.296;2023-05-20T12:34:28;97409.31;;;26.11;37.98
21869;BME280;11099;41.564;23.296;2023-05-20T12:36:54;97317.56;;;25.67;37.82
21869;BME280;11099;41.564;23.296;2023-05-20T12:39:20;97315.13;;;25.76;35.85
21869;BME280;11099;41.564;23.296;2023-05-20T12:41:45;97335.63;;;25.88;35.72
21869;BME280;11099;41.564;23.296;2023-05-20T12:44:11;97380.19;;;26.05;35.83
21869;BME280;11099;41.564;23.296;2023-05-20T12:46:36;97393.88;;;26.01;36.87
21869;BME280;11099;41.564;23.296;2023-05-20T12:49:02;97390.41;;;25.66;39.08
21869;BME280;11099;41.564;23.296;2023-05-20T12:51:28;97355.63;;;25.78;37.92
21869;BME280;11099;41.564;23.296;2023-05-20T12:53:53;97267.00;;;25.01;38.53
21869;BME280;11099;41.564;23.296;2023-05-20T12:56:19;97297.53;;;25.19;38.22
21869;BME280;11099;41.564;23.296;2023-05-20T12:58:45;97276.56;;;24.79;37.96
21869;BME280;11099;41.564;23.296;2023-05-20T13:01:11;97277.72;;;24.78;38.36
21869;BME280;11099;41.564;23.296;2023-05-20T13:03:36;97322.41;;;24.84;39.26
21869;BME280;11099;41.564;23.296;2023-05-20T13:06:03;97355.66;;;25.02;38.46
21869;BME280;11099;41.564;23.296;2023-05-20T13:08:28;97353.81;;;24.92;37.99
21869;BME280;11099;41.564;23.296;2023-05-20T13:10:54;97341.69;;;25.00;37.82
21869;BME280;11099;41.564;23.296;2023-05-20T13:13:20;97320.16;;;24.75;38.88
21869;BME280;11099;41.564;23.296;2023-05-20T13:15:49;97383.00;;;25.33;39.37
21869;BME280;11099;41.564;23.296;2023-05-20T13:18:15;97355.50;;;25.20;38.71
21869;BME280;11099;41.564;23.296;2023-05-20T13:20:44;97353.44;;;25.31;38.07
21869;BME280;11099;41.564;23.296;2023-05-20T13:23:10;97287.94;;;25.04;39.09
21869;BME280;11099;41.564;23.296;2023-05-20T13:25:36;97332.59;;;25.48;40.23
21869;BME280;11099;41.564;23.296;2023-05-20T13:28:03;97234.66;;;25.03;41.33
21869;BME280;11099;41.564;23.296;2023-05-20T13:30:29;97305.34;;;25.48;46.64
21869;BME280;11099;41.564;23.296;2023-05-20T13:32:54;97288.09;;;25.28;45.23
21869;BME280;11099;41.564;23.296;2023-05-20T13:35:20;97308.47;;;25.16;43.02
21869;BME280;11099;41.564;23.296;2023-05-20T13:37:46;97301.19;;;24.68;42.76